Time;durP1;ratioP1;P1;durP2;ratioP2;P2;SDS_P1;SDS_P2;PMS_P1;PMS_P2;Temp;Humidity;BMP_temperature;BMP_pressure;BME280_temperature;BME280_humidity;BME280_pressure;Samples;Min_cycle;Max_cycle;Signal;HPM_P1;HPM_P2
2021/09/29 00:00:06;;;;;;;7.13;4.57;;;;;;;11.91;95.37;100678.50;5058421;28;20037;-53
2021/09/29 00:02:34;;;;;;;6.57;4.50;;;;;;;11.85;95.47;100676.13;5054487;28;20044;-53
2021/09/29 00:05:01;;;;;;;11.15;4.80;;;;;;;11.84;95.47;100687.69;5057878;28;20072;-54
2021/09/29 00:07:28;;;;;;;8.48;4.32;;;;;;;11.80;95.84;100674.66;5063885;28;20580;-53
2021/09/29 00:09:55;;;;;;;9.50;4.25;;;;;;;11.81;95.59;100676.34;5063368;28;20197;-52
2021/09/29 00:12:21;;;;;;;7.53;4.43;;;;;;;11.73;95.93;100668.72;5055898;28;20052;-52
2021/09/29 00:14:49;;;;;;;7.28;4.40;;;;;;;11.70;96.81;100673.31;5062529;28;20052;-53
2021/09/29 00:17:15;;;;;;;10.18;4.45;;;;;;;11.75;96.25;100676.63;5064386;28;20049;-53
2021/09/29 00:19:41;;;;;;;6.65;4.32;;;;;;;11.58;96.19;100654.41;5060904;28;20047;-53
2021/09/29 00:22:08;;;;;;;8.63;4.85;;;;;;;11.67;96.59;100666.34;5062220;28;20040;-52
2021/09/29 00:24:34;;;;;;;6.15;4.05;;;;;;;11.68;97.77;100661.91;5062436;28;20906;-54
2021/09/29 00:27:01;;;;;;;7.15;3.90;;;;;;;11.65;96.88;100654.13;5063788;28;20401;-53
2021/09/29 00:29:27;;;;;;;9.57;4.30;;;;;;;11.69;97.73;100655.69;5062470;28;20326;-53
2021/09/29 00:31:54;;;;;;;10.18;4.15;;;;;;;11.70;97.05;100652.09;5060420;28;20082;-54
2021/09/29 00:34:36;;;;;;;10.50;4.65;;;;;;;11.73;97.98;100654.59;5063581;28;20048;-54
2021/09/29 00:37:03;;;;;;;10.10;4.93;;;;;;;11.74;96.98;100641.28;5063381;28;20044;-53
2021/09/29 00:39:29;;;;;;;9.93;4.43;;;;;;;11.66;97.83;100626.63;5061789;28;20048;-54
2021/09/29 00:41:56;;;;;;;10.82;4.72;;;;;;;11.75;97.21;100642.13;5059698;28;20044;-53
2021/09/29 00:44:23;;;;;;;8.50;4.55;;;;;;;11.68;96.46;100638.03;5061123;28;20055;-51
2021/09/29 00:46:50;;;;;;;9.00;4.60;;;;;;;11.69;96.87;100637.09;5061002;28;20406;-54
2021/09/29 00:49:16;;;;;;;9.88;4.72;;;;;;;11.66;96.41;100640.75;5063963;28;20048;-54
2021/09/29 00:51:43;;;;;;;6.93;4.80;;;;;;;11.59;96.53;100629.59;5061433;28;20454;-54
2021/09/29 00:54:10;;;;;;;8.57;4.78;;;;;;;11.61;97.54;100624.22;5063784;28;20513;-51
2021/09/29 00:56:37;;;;;;;7.55;5.00;;;;;;;11.61;96.70;100629.53;5064189;28;20494;-53
2021/09/29 00:59:04;;;;;;;6.63;5.03;;;;;;;11.60;96.79;100633.13;5061352;28;20059;-55
2021/09/29 01:01:31;;;;;;;7.90;4.50;;;;;;;11.59;96.86;100632.25;5059211;28;20506;-52
2021/09/29 01:04:00;;;;;;;8.43;4.55;;;;;;;11.57;96.40;100628.81;5061907;28;20056;-53
2021/09/29 01:06:35;;;;;;;10.10;5.00;;;;;;;11.57;96.36;100627.94;5065157;28;20144;-51
2021/09/29 01:09:10;;;;;;;8.93;4.78;;;;;;;11.55;96.78;100622.72;5059679;28;20048;-54
2021/09/29 01:11:51;;;;;;;10.32;5.13;;;;;;;11.56;97.13;100623.56;5060347;28;20166;-54
2021/09/29 01:14:31;;;;;;;9.05;5.00;;;;;;;11.57;97.44;100610.25;5064101;28;20054;-53
2021/09/29 01:17:00;;;;;;;7.10;4.90;;;;;;;11.60;97.54;100606.59;5061244;28;20037;-53
2021/09/29 01:19:30;;;;;;;12.52;5.57;;;;;;;11.62;97.16;100609.16;5062137;28;20132;-53
2021/09/29 01:22:07;;;;;;;10.70;5.43;;;;;;;11.62;97.42;100609.16;5060277;28;20053;-53
2021/09/29 01:24:51;;;;;;;11.23;5.38;;;;;;;11.60;97.16;100599.50;5060128;28;20045;-53
2021/09/29 01:27:20;;;;;;;9.13;5.55;;;;;;;11.67;97.19;100599.19;5064418;28;20055;-54
2021/09/29 01:29:46;;;;;;;11.68;5.72;;;;;;;11.55;96.65;100584.72;5061879;28;20494;-52
2021/09/29 01:32:13;;;;;;;11.05;5.32;;;;;;;11.60;97.33;100599.50;5061979;28;20045;-54
2021/09/29 01:34:40;;;;;;;7.10;4.97;;;;;;;11.64;97.45;100600.22;5059471;28;20044;-54
2021/09/29 01:37:09;;;;;;;10.60;5.43;;;;;;;11.65;97.85;100593.94;5061767;28;20071;-54
2021/09/29 01:39:37;;;;;;;8.43;5.07;;;;;;;11.69;97.44;100589.34;5055472;28;20152;-54
2021/09/29 01:42:04;;;;;;;9.07;5.15;;;;;;;11.75;96.72;100587.28;5056412;28;20118;-51
2021/09/29 01:44:31;;;;;;;10.30;5.28;;;;;;;11.80;96.07;100590.63;5057852;28;20053;-53
2021/09/29 01:46:59;;;;;;;8.25;5.40;;;;;;;11.65;96.02;100570.06;5062381;28;20415;-53
2021/09/29 01:49:41;;;;;;;8.57;5.53;;;;;;;11.80;96.73;100579.13;5061726;28;20059;-52
2021/09/29 01:52:09;;;;;;;9.38;5.72;;;;;;;11.79;96.94;100588.03;5053834;28;20414;-55
2021/09/29 01:54:44;;;;;;;10.60;5.65;;;;;;;11.76;96.92;100581.06;5062056;28;20059;-52
2021/09/29 01:57:12;;;;;;;9.13;5.57;;;;;;;11.81;96.63;100575.53;5060374;28;20516;-53
2021/09/29 01:59:42;;;;;;;8.93;5.35;;;;;;;11.82;96.61;100577.25;5057013;28;20078;-53
2021/09/29 02:02:09;;;;;;;9.45;5.50;;;;;;;11.70;96.38;100557.44;5058955;28;20052;-54
2021/09/29 02:04:35;;;;;;;7.95;5.25;;;;;;;11.80;96.58;100566.72;5057403;28;20528;-52
2021/09/29 02:07:02;;;;;;;7.93;5.47;;;;;;;11.81;96.85;100563.13;5062374;28;20045;-52
2021/09/29 02:09:28;;;;;;;10.73;5.40;;;;;;;11.82;96.92;100563.97;5056464;28;20045;-52
2021/09/29 02:11:56;;;;;;;8.55;5.75;;;;;;;11.81;97.08;100571.06;5056325;28;20134;-54
2021/09/29 02:14:24;;;;;;;9.55;5.78;;;;;;;11.87;96.34;100569.94;5058770;28;20091;-53
2021/09/29 02:16:52;;;;;;;12.20;5.88;;;;;;;11.86;96.52;100573.50;5061923;28;20067;-52
2021/09/29 02:19:19;;;;;;;9.18;5.20;;;;;;;11.88;96.30;100571.66;5058492;28;20049;-55
2021/09/29 02:21:46;;;;;;;8.27;5.25;;;;;;;11.85;96.64;100570.00;5056140;28;20044;-53
2021/09/29 02:24:13;;;;;;;7.68;5.30;;;;;;;11.88;95.97;100558.38;5050710;28;20064;-52
2021/09/29 02:26:40;;;;;;;9.55;5.32;;;;;;;11.91;95.79;100566.19;5036172;28;20045;-53
2021/09/29 02:29:08;;;;;;;8.43;5.32;;;;;;;11.90;96.21;100572.44;5067570;28;20422;-53
2021/09/29 02:31:35;;;;;;;6.78;5.45;;;;;;;11.77;96.03;100544.78;5059862;28;20345;-54
2021/09/29 02:34:02;;;;;;;9.27;5.30;;;;;;;11.93;96.06;100574.94;5058951;28;20347;-53
2021/09/29 02:36:29;;;;;;;7.05;5.07;;;;;;;11.85;95.68;100561.19;5058990;28;20463;-52
2021/09/29 02:38:55;;;;;;;7.90;5.20;;;;;;;11.95;96.16;100573.06;5060321;28;20355;-53
2021/09/29 02:41:23;;;;;;;11.32;5.05;;;;;;;11.94;95.56;100576.66;5062790;28;20051;-53
2021/09/29 02:43:49;;;;;;;8.80;4.65;;;;;;;11.92;95.91;100578.53;5057277;28;20049;-53
2021/09/29 02:46:16;;;;;;;9.55;4.75;;;;;;;11.90;96.03;100575.09;5061434;28;20044;-53
2021/09/29 02:48:43;;;;;;;7.22;4.60;;;;;;;11.94;95.67;100571.34;5060582;28;20044;-53
2021/09/29 02:51:10;;;;;;;9.73;5.43;;;;;;;11.93;96.01;100566.97;5059639;28;20449;-52
2021/09/29 02:53:36;;;;;;;7.13;4.80;;;;;;;12.01;96.47;100563.94;5061746;28;20045;-53
2021/09/29 02:56:26;;;;;;;9.30;5.03;;;;;;;11.99;94.94;100574.63;5060046;28;20157;-53
2021/09/29 02:58:53;;;;;;;7.88;4.50;;;;;;;11.83;94.74;100555.09;5061222;28;20048;-58
2021/09/29 03:01:20;;;;;;;10.82;4.80;;;;;;;11.91;95.16;100579.47;5067556;28;20041;-55
2021/09/29 03:03:47;;;;;;;9.48;5.35;;;;;;;11.95;97.40;100583.69;5071388;28;20084;-56
2021/09/29 03:06:13;;;;;;;10.38;5.20;;;;;;;12.06;97.27;100581.34;5073143;28;20055;-52
2021/09/29 03:08:40;;;;;;;8.38;5.15;;;;;;;12.08;96.04;100584.78;5057775;28;20036;-53
2021/09/29 03:11:06;;;;;;;7.63;5.00;;;;;;;12.06;95.40;100589.31;5062391;28;20051;-54
2021/09/29 03:13:33;;;;;;;7.47;4.72;;;;;;;12.09;96.40;100583.84;5058026;28;20044;-52
2021/09/29 03:15:59;;;;;;;7.50;4.88;;;;;;;12.09;95.96;100583.84;5068426;28;20834;-53
2021/09/29 03:18:26;;;;;;;6.28;4.40;;;;;;;12.08;95.50;100589.25;5064738;28;20044;-53
2021/09/29 03:20:52;;;;;;;9.68;5.10;;;;;;;12.05;94.95;100586.72;5070866;28;20052;-52
2021/09/29 03:23:19;;;;;;;7.95;4.50;;;;;;;12.02;94.30;100579.78;5061619;28;20041;-51
2021/09/29 03:25:45;;;;;;;8.23;5.00;;;;;;;12.02;94.32;100584.22;5058276;28;20514;-53
2021/09/29 03:28:12;;;;;;;9.27;4.90;;;;;;;12.04;94.18;100588.53;5061617;28;20462;-53
2021/09/29 03:30:39;;;;;;;9.20;5.53;;;;;;;12.04;94.04;100575.25;5054737;28;20157;-53
2021/09/29 03:33:06;;;;;;;6.88;4.95;;;;;;;12.05;93.28;100586.72;5059118;28;20434;-53
2021/09/29 03:35:34;;;;;;;7.00;4.90;;;;;;;11.98;93.66;100575.56;5061557;28;20245;-52
2021/09/29 03:38:02;;;;;;;8.93;4.93;;;;;;;11.97;93.91;100584.44;5058988;28;20049;-53
2021/09/29 03:40:28;;;;;;;9.57;5.13;;;;;;;11.96;94.42;100585.41;5059253;28;20056;-53
2021/09/29 03:42:56;;;;;;;8.23;5.00;;;;;;;11.93;94.88;100582.91;5056494;28;20492;-53
2021/09/29 03:45:23;;;;;;;8.35;5.00;;;;;;;11.91;94.72;100576.81;5064598;28;20492;-53
2021/09/29 03:47:50;;;;;;;8.65;5.07;;;;;;;12.00;95.65;100586.09;5058277;28;20047;-53
2021/09/29 03:50:16;;;;;;;7.22;4.80;;;;;;;12.06;95.99;100588.44;5059009;28;20048;-52
2021/09/29 03:52:43;;;;;;;10.13;5.60;;;;;;;12.14;96.03;100581.81;5062122;28;20052;-52
2021/09/29 03:55:09;;;;;;;6.55;4.72;;;;;;;12.23;95.87;100577.84;5065207;28;20036;-53
2021/09/29 03:57:37;;;;;;;8.30;5.13;;;;;;;12.27;95.37;100568.78;5062715;28;20787;-52
2021/09/29 04:00:06;;;;;;;7.13;4.88;;;;;;;12.33;95.53;100572.91;5064358;28;20139;-53
2021/09/29 04:02:33;;;;;;;9.15;5.22;;;;;;;12.30;94.46;100558.84;5064540;28;20044;-53
2021/09/29 04:05:00;;;;;;;10.18;5.35;;;;;;;12.27;93.69;100563.50;5062914;28;20090;-52
2021/09/29 04:07:27;;;;;;;8.13;5.32;;;;;;;12.23;92.91;100559.25;5062650;28;20044;-53
2021/09/29 04:09:53;;;;;;;7.95;5.07;;;;;;;12.20;93.12;100567.38;5069152;28;20037;-55
2021/09/29 04:12:23;;;;;;;9.10;4.65;;;;;;;12.13;93.32;100561.50;5063199;28;20048;-54
2021/09/29 04:14:50;;;;;;;7.20;4.93;;;;;;;12.09;93.79;100567.94;5062812;28;20045;-53
2021/09/29 04:17:17;;;;;;;9.23;5.70;;;;;;;12.13;95.29;100566.81;5062457;28;20052;-54
2021/09/29 04:19:44;;;;;;;10.85;5.22;;;;;;;12.26;97.11;100578.56;5058490;28;20439;-52
2021/09/29 04:22:11;;;;;;;10.02;5.60;;;;;;;12.26;95.09;100573.25;5061616;28;20048;-53
2021/09/29 04:24:39;;;;;;;8.25;5.63;;;;;;;12.26;94.17;100581.22;5063127;28;20527;-54
2021/09/29 04:27:07;;;;;;;8.88;5.72;;;;;;;12.25;94.00;100587.47;5063406;28;20048;-52
2021/09/29 04:29:33;;;;;;;10.77;5.90;;;;;;;12.24;93.79;100579.56;5063275;28;20043;-52
2021/09/29 04:32:00;;;;;;;10.32;5.95;;;;;;;12.24;94.23;100579.56;5060528;28;20063;-51
2021/09/29 04:34:26;;;;;;;7.00;5.10;;;;;;;12.23;94.29;100584.00;5059783;28;20056;-53
2021/09/29 04:36:53;;;;;;;10.50;6.00;;;;;;;12.21;94.37;100585.88;5060198;28;20044;-53
2021/09/29 04:39:19;;;;;;;7.88;5.72;;;;;;;12.16;93.79;100574.63;5054460;28;20037;-53
2021/09/29 04:41:46;;;;;;;9.20;5.55;;;;;;;12.19;95.46;100574.47;5060202;28;20398;-52
2021/09/29 04:44:12;;;;;;;10.57;6.18;;;;;;;12.20;94.44;100585.97;5059317;28;20048;-53
2021/09/29 04:46:38;;;;;;;8.27;6.03;;;;;;;12.18;94.21;100598.44;5058466;28;20041;-52
2021/09/29 04:49:05;;;;;;;7.63;5.45;;;;;;;12.15;95.32;100610.06;5059554;28;20040;-52
2021/09/29 04:51:32;;;;;;;7.03;5.68;;;;;;;12.16;95.71;100616.25;5059347;28;20045;-52
2021/09/29 04:53:59;;;;;;;8.15;6.00;;;;;;;12.21;95.99;100616.88;5059448;28;20040;-52
2021/09/29 04:56:26;;;;;;;11.02;5.90;;;;;;;12.22;95.14;100613.28;5059605;28;20505;-55
2021/09/29 04:58:53;;;;;;;11.40;6.10;;;;;;;12.20;94.18;100612.50;5055834;28;20048;-52
2021/09/29 05:01:23;;;;;;;8.75;5.13;;;;;;;12.15;94.76;100610.06;5059670;28;20203;-53
2021/09/29 05:03:49;;;;;;;7.97;5.78;;;;;;;12.14;95.43;100612.81;5058885;28;20049;-53
2021/09/29 05:06:16;;;;;;;8.82;5.85;;;;;;;12.10;95.35;100613.91;5062245;28;20051;-53
2021/09/29 05:08:43;;;;;;;14.75;6.05;;;;;;;12.05;95.47;100608.81;5060507;28;20048;-53
2021/09/29 05:11:33;;;;;;;10.30;5.80;;;;;;;12.03;95.43;100600.06;5056401;28;20052;-53
2021/09/29 05:13:59;;;;;;;15.43;6.55;;;;;;;12.03;96.20;100608.03;5060431;28;20050;-52
2021/09/29 05:16:26;;;;;;;11.70;5.93;;;;;;;12.01;96.62;100614.34;5056725;28;20529;-55
2021/09/29 05:18:53;;;;;;;9.02;6.35;;;;;;;12.01;97.34;100617.00;5057866;28;20055;-55
2021/09/29 05:21:19;;;;;;;9.45;6.30;;;;;;;12.04;97.25;100619.53;5052024;28;20055;-53
2021/09/29 05:23:46;;;;;;;11.57;6.40;;;;;;;12.00;96.34;100628.56;5058801;28;20044;-54
2021/09/29 05:26:17;;;;;;;9.38;6.50;;;;;;;11.98;96.55;100633.94;5059749;28;20048;-53
2021/09/29 05:28:45;;;;;;;9.02;6.15;;;;;;;11.95;97.38;100631.47;5053249;28;20032;-52
2021/09/29 05:31:12;;;;;;;11.40;6.70;;;;;;;11.94;96.98;100630.59;5060178;28;20421;-54
2021/09/29 05:33:38;;;;;;;10.25;6.22;;;;;;;11.93;97.04;100633.31;5057787;28;20405;-53
2021/09/29 05:36:05;;;;;;;12.40;6.25;;;;;;;11.93;98.05;100628.00;5056804;28;20045;-53
2021/09/29 05:38:31;;;;;;;10.65;6.70;;;;;;;11.92;97.52;100642.22;5064607;28;20060;-53
2021/09/29 05:40:58;;;;;;;12.40;7.10;;;;;;;11.93;97.19;100635.97;5057980;28;20040;-54
2021/09/29 05:43:25;;;;;;;9.07;6.45;;;;;;;11.91;97.93;100630.75;5053861;28;20059;-54
2021/09/29 05:45:52;;;;;;;11.15;6.70;;;;;;;11.82;97.49;100609.09;5057592;28;20045;-53
2021/09/29 05:48:19;;;;;;;10.07;6.53;;;;;;;11.94;97.41;100635.03;5054579;28;20122;-53
2021/09/29 05:50:46;;;;;;;13.90;7.35;;;;;;;11.95;97.63;100631.47;5057354;28;20060;-54
2021/09/29 05:53:13;;;;;;;11.48;7.25;;;;;;;11.94;97.06;100619.13;5058658;28;20044;-54
2021/09/29 05:55:39;;;;;;;12.35;6.80;;;;;;;11.96;97.97;100616.41;5058575;28;20047;-56
2021/09/29 05:58:06;;;;;;;11.70;7.22;;;;;;;12.02;98.67;100629.34;5062222;28;20477;-53
2021/09/29 06:00:32;;;;;;;11.05;7.18;;;;;;;12.02;97.00;100629.34;5057005;28;20435;-53
2021/09/29 06:02:59;;;;;;;14.90;7.13;;;;;;;12.03;96.81;100631.94;5057013;28;20048;-51
2021/09/29 06:05:25;;;;;;;14.90;7.53;;;;;;;12.04;96.06;100630.13;5053527;28;20569;-52
2021/09/29 06:07:52;;;;;;;12.23;7.30;;;;;;;12.02;95.86;100627.56;5062236;28;20052;-54
2021/09/29 06:10:18;;;;;;;13.82;6.95;;;;;;;12.06;95.77;100628.25;5057357;28;20044;-54
2021/09/29 06:12:46;;;;;;;12.05;6.80;;;;;;;12.08;95.53;100621.09;5052253;28;20497;-53
2021/09/29 06:15:34;;;;;;;14.73;7.88;;;;;;;12.06;95.14;100607.03;5053892;28;20070;-52
2021/09/29 06:18:03;;;;;;;14.02;7.57;;;;;;;12.23;94.51;100628.28;5061652;28;20059;-52
2021/09/29 06:20:32;;;;;;;14.45;7.65;;;;;;;12.24;95.61;100622.91;5060796;28;20080;-54
2021/09/29 06:23:00;;;;;;;13.68;7.65;;;;;;;12.22;94.18;100614.16;5051832;28;20047;-54
2021/09/29 06:25:27;;;;;;;13.68;7.18;;;;;;;12.22;94.35;100627.44;5055696;28;20080;-52
2021/09/29 06:27:54;;;;;;;14.20;7.40;;;;;;;12.19;94.50;100640.84;5060983;28;20055;-53
2021/09/29 06:30:21;;;;;;;13.45;7.63;;;;;;;12.07;94.67;100620.22;5053976;28;20427;-52
2021/09/29 06:32:47;;;;;;;14.30;7.72;;;;;;;12.24;96.50;100630.88;5053620;28;20051;-53
2021/09/29 06:35:14;;;;;;;13.05;7.93;;;;;;;12.22;94.21;100629.22;5062370;28;20047;-52
2021/09/29 06:37:44;;;;;;;15.98;7.35;;;;;;;12.26;95.96;100647.59;5056116;28;20048;-54
2021/09/29 06:40:19;;;;;;;12.30;8.23;;;;;;;12.24;94.98;100638.84;5056406;28;20040;-53
2021/09/29 06:42:46;;;;;;;10.05;8.05;;;;;;;12.25;94.60;100637.91;5058578;28;21057;-54
2021/09/29 06:45:14;;;;;;;14.32;8.02;;;;;;;12.28;96.13;100628.91;5059570;28;20051;-53
2021/09/29 06:47:40;;;;;;;12.38;8.48;;;;;;;12.36;96.39;100628.53;5057855;28;20051;-55
2021/09/29 06:50:09;;;;;;;12.05;8.07;;;;;;;12.41;95.24;100619.41;5059910;28;20521;-52
2021/09/29 06:52:37;;;;;;;14.65;8.00;;;;;;;12.55;95.98;100624.00;5055809;28;20052;-53
2021/09/29 06:55:05;;;;;;;15.50;8.60;;;;;;;12.63;94.33;100625.31;5058968;28;20045;-53
2021/09/29 06:57:32;;;;;;;13.48;8.20;;;;;;;12.76;96.63;100616.69;5058259;28;20056;-53
2021/09/29 06:59:59;;;;;;;15.00;8.32;;;;;;;12.87;94.96;100620.53;5053499;28;20380;-54
2021/09/29 07:02:25;;;;;;;13.48;8.90;;;;;;;12.88;91.73;100618.75;5054478;28;20048;-54
2021/09/29 07:04:52;;;;;;;15.15;9.10;;;;;;;12.88;91.90;100632.88;5056010;28;20067;-54
2021/09/29 07:07:19;;;;;;;12.45;8.65;;;;;;;12.91;90.63;100623.84;5058592;28;20047;-54
2021/09/29 07:09:45;;;;;;;13.50;8.45;;;;;;;12.96;90.89;100632.47;5058298;28;20041;-51
2021/09/29 07:12:12;;;;;;;14.43;8.85;;;;;;;13.08;93.28;100637.13;5057949;28;20410;-55
2021/09/29 07:17:32;;;;;;;13.60;8.65;;;;;;;13.23;89.37;100628.34;5058332;28;20053;-53
2021/09/29 07:19:59;;;;;;;13.38;8.18;;;;;;;13.41;88.26;100649.56;5062606;28;20059;-54
2021/09/29 07:22:26;;;;;;;18.27;9.10;;;;;;;13.55;88.97;100639.88;5064036;28;20048;-53
2021/09/29 07:24:53;;;;;;;16.02;8.95;;;;;;;13.70;86.28;100638.19;5062188;28;20104;-52
2021/09/29 07:27:20;;;;;;;13.18;8.60;;;;;;;13.85;85.97;100631.16;5063566;28;20151;-52
2021/09/29 07:29:50;;;;;;;12.35;8.15;;;;;;;13.97;86.25;100612.69;5061051;28;20039;-54
2021/09/29 07:32:17;;;;;;;12.05;8.05;;;;;;;14.20;84.65;100629.97;5063943;28;20040;-54
2021/09/29 07:34:43;;;;;;;13.52;8.48;;;;;;;14.19;84.87;100628.25;5060257;28;20490;-55
2021/09/29 07:37:10;;;;;;;12.65;8.07;;;;;;;14.13;83.44;100622.44;5062985;28;20045;-53
2021/09/29 07:39:37;;;;;;;13.15;8.40;;;;;;;14.04;83.63;100627.34;5058753;28;20044;-54
2021/09/29 07:42:04;;;;;;;13.43;8.27;;;;;;;14.00;83.70;100627.63;5059749;28;20049;-53
2021/09/29 07:44:30;;;;;;;10.18;7.88;;;;;;;13.96;84.20;100628.72;5061217;28;20063;-52
2021/09/29 07:46:57;;;;;;;13.25;8.00;;;;;;;13.95;83.97;100627.00;5066811;28;20044;-53
2021/09/29 07:49:24;;;;;;;15.02;8.10;;;;;;;13.89;83.92;100628.22;5059612;28;20045;-52
2021/09/29 07:51:50;;;;;;;11.95;7.75;;;;;;;13.90;84.55;100626.41;5062973;28;20052;-53
2021/09/29 07:54:17;;;;;;;12.85;7.72;;;;;;;13.92;84.36;100621.84;5061955;28;20045;-52
2021/09/29 07:56:43;;;;;;;11.50;7.10;;;;;;;13.98;84.62;100619.72;5059439;28;20064;-53
2021/09/29 07:59:11;;;;;;;11.18;7.72;;;;;;;14.08;83.72;100609.38;5060908;28;20051;-53
2021/09/29 08:01:38;;;;;;;10.60;7.45;;;;;;;14.17;82.71;100611.50;5052496;28;20357;-53
2021/09/29 08:04:05;;;;;;;12.25;6.85;;;;;;;14.25;82.24;100601.28;5055622;28;20044;-53
2021/09/29 08:06:35;;;;;;;12.43;6.60;;;;;;;14.34;80.59;100610.50;5055513;28;20059;-52
2021/09/29 08:09:03;;;;;;;10.68;6.95;;;;;;;14.43;80.29;100617.16;5054231;28;20087;-53
2021/09/29 08:11:31;;;;;;;10.13;6.82;;;;;;;14.48;79.40;100617.75;5057670;28;20043;-53
2021/09/29 08:13:59;;;;;;;12.93;7.15;;;;;;;14.47;80.05;100608.03;5057006;28;20051;-53
2021/09/29 08:16:26;;;;;;;13.52;6.95;;;;;;;14.49;79.76;100609.63;5057092;28;20044;-52
2021/09/29 08:18:52;;;;;;;10.10;6.55;;;;;;;14.52;79.18;100611.25;5055047;28;20087;-55
2021/09/29 08:21:26;;;;;;;10.82;6.55;;;;;;;14.57;79.34;100620.72;5055685;28;20064;-55
2021/09/29 08:23:55;;;;;;;10.45;6.43;;;;;;;14.63;79.74;100625.69;5059021;28;20045;-53
2021/09/29 08:34:22;;;;;;;7.85;5.47;;;;;;;15.04;75.83;100620.47;5057746;28;20044;-52
2021/09/29 08:37:00;;;;;;;8.57;5.22;;;;;;;14.93;76.66;100625.63;5057734;28;20442;-53
2021/09/29 08:39:42;;;;;;;10.25;5.57;;;;;;;14.89;77.21;100618.75;5058055;28;20041;-52
2021/09/29 08:44:55;;;;;;;7.90;5.38;;;;;;;14.80;76.51;100605.13;5055950;28;20044;-54
2021/09/29 09:17:12;;;;;;;10.07;4.38;;;;;;;15.77;74.52;100613.16;5059176;28;20065;-53
2021/09/29 09:19:38;;;;;;;12.02;4.63;;;;;;;15.86;73.51;100613.53;5061766;28;20042;-54
2021/09/29 09:22:06;;;;;;;8.45;4.22;;;;;;;16.00;73.20;100614.34;5062523;28;20304;-55
2021/09/29 09:24:35;;;;;;;7.00;4.50;;;;;;;16.13;72.87;100606.38;5062741;28;20049;-54
2021/09/29 09:27:02;;;;;;;5.90;3.97;;;;;;;16.20;72.34;100599.69;5059346;28;20379;-53
2021/09/29 09:29:29;;;;;;;12.20;4.18;;;;;;;16.08;71.91;100585.31;5055827;28;20413;-52
2021/09/29 09:32:16;;;;;;;5.60;3.55;;;;;;;16.11;73.03;100563.72;5063648;28;20047;-52
2021/09/29 09:34:43;;;;;;;11.70;4.40;;;;;;;16.33;71.83;100589.00;5067822;28;20036;-53
2021/09/29 09:37:15;;;;;;;8.02;3.88;;;;;;;16.42;71.75;100588.38;5063361;28;20460;-54
2021/09/29 09:39:42;;;;;;;6.20;3.38;;;;;;;16.40;70.76;100590.28;5055201;28;20516;-54
2021/09/29 09:42:10;;;;;;;12.50;3.53;;;;;;;16.40;70.63;100588.47;5057705;28;20045;-54
2021/09/29 09:44:40;;;;;;;9.07;3.25;;;;;;;16.49;70.25;100582.53;5058414;28;20040;-54
2021/09/29 09:47:14;;;;;;;6.57;2.97;;;;;;;17.02;69.34;100569.91;5056540;28;20040;-54
2021/09/29 09:49:55;;;;;;;10.50;3.17;;;;;;;17.64;67.19;100563.69;5057966;28;20330;-53
2021/09/29 09:52:32;;;;;;;7.10;2.88;;;;;;;18.34;63.39;100569.13;5064017;28;20525;-54
2021/09/29 09:55:17;;;;;;;5.05;2.45;;;;;;;18.31;62.89;100570.22;5059041;28;20048;-53
2021/09/29 09:57:50;;;;;;;7.15;2.28;;;;;;;18.19;61.97;100560.44;5055891;28;20048;-53
2021/09/29 10:00:19;;;;;;;4.80;2.25;;;;;;;18.10;62.89;100563.81;5056913;28;20417;-55
2021/09/29 10:02:48;;;;;;;6.95;2.20;;;;;;;18.01;63.50;100569.88;5052856;28;20059;-54
2021/09/29 10:05:17;;;;;;;5.47;2.10;;;;;;;18.17;62.10;100562.38;5054797;28;20194;-54
2021/09/29 10:07:45;;;;;;;4.60;2.00;;;;;;;18.05;62.34;100552.59;5055400;28;20471;-53
2021/09/29 10:10:23;;;;;;;4.53;1.73;;;;;;;17.97;62.90;100549.63;5056367;28;20406;-53
2021/09/29 10:13:14;;;;;;;7.28;1.63;;;;;;;18.27;61.27;100543.75;5059657;28;20072;-54
2021/09/29 10:27:13;;;;;;;4.88;1.45;;;;;;;19.44;56.76;100534.47;5059804;28;20041;-53
2021/09/29 10:29:45;;;;;;;4.88;1.60;;;;;;;18.91;58.30;100526.22;5055276;28;20051;-54
2021/09/29 10:43:04;;;;;;;;;;;;;;;18.64;60.27;100513.16;5050600;28;20040;-52
2021/09/29 10:45:42;;;;;;;;;;;;;;;18.91;59.47;100512.78;5054345;28;19924;-53
2021/09/29 11:03:00;;;;;;;5.28;1.25;;;;;;;20.44;53.89;100485.72;5052526;28;20478;-54
2021/09/29 11:05:00;;;;;;;3.47;0.95;;;;;;;20.15;53.97;100506.97;5047537;28;20045;-54
2021/09/29 11:30:03;;;;;;;6.05;1.17;;;;;;;17.34;64.99;100492.66;5049071;28;20044;-52
2021/09/29 11:32:41;;;;;;;3.88;1.00;;;;;;;17.39;65.04;100506.56;5056988;28;20059;-54
2021/09/29 11:35:19;;;;;;;2.33;1.13;;;;;;;17.48;64.82;100505.03;5059495;28;20044;-53
2021/09/29 11:48:46;;;;;;;4.05;0.90;;;;;;;17.23;65.04;100502.44;5067763;28;20433;-52
2021/09/29 12:08:34;;;;;;;4.55;1.20;;;;;;;16.46;79.48;100504.34;5063132;28;20040;-54
2021/09/29 12:11:10;;;;;;;2.35;1.25;;;;;;;16.28;81.08;100508.28;5061380;28;20044;-55
2021/09/29 12:14:05;;;;;;;2.63;1.23;;;;;;;16.22;81.46;100509.56;5059542;28;20044;-53
2021/09/29 12:16:37;;;;;;;4.27;1.47;;;;;;;15.83;80.00;100530.97;5060910;28;20066;-53
2021/09/29 12:19:10;;;;;;;4.35;1.70;;;;;;;15.07;82.45;100600.78;5060968;28;20051;-52
2021/09/29 12:21:50;;;;;;;4.82;1.20;;;;;;;14.00;86.00;100590.34;5060539;28;20043;-53
2021/09/29 12:24:47;;;;;;;6.40;2.15;;;;;;;13.23;91.09;100591.13;5056118;28;20051;-55
2021/09/29 12:36:28;;;;;;;4.07;1.40;;;;;;;12.27;100.00;100567.00;5014100;28;20046;-52
2021/09/29 12:39:22;;;;;;;4.38;1.45;;;;;;;12.26;100.00;100573.25;5015087;28;20076;-55
2021/09/29 12:41:56;;;;;;;5.50;1.50;;;;;;;12.25;100.00;100571.53;5055198;28;20040;-53
2021/09/29 12:44:23;;;;;;;2.78;1.60;;;;;;;12.29;100.00;100578.38;5056917;28;20052;-53
2021/09/29 12:47:11;;;;;;;3.05;1.52;;;;;;;12.40;100.00;100577.84;5062109;28;20044;-53
2021/09/29 12:49:38;;;;;;;1.83;1.42;;;;;;;12.49;100.00;100576.50;5057291;28;20517;-53
2021/09/29 12:52:10;;;;;;;3.00;1.77;;;;;;;12.64;100.00;100565.06;5055592;28;20144;-51
2021/09/29 12:54:45;;;;;;;4.85;1.80;;;;;;;12.70;100.00;100558.59;5060846;28;20044;-55
2021/09/29 12:57:13;;;;;;;2.78;1.75;;;;;;;12.79;100.00;100560.75;5062530;28;20048;-53
2021/09/29 12:59:39;;;;;;;5.68;1.40;;;;;;;12.87;100.00;100559.41;5058714;28;20597;-52
2021/09/29 13:02:06;;;;;;;2.85;2.17;;;;;;;13.45;100.00;100568.66;5059694;28;20433;-55
2021/09/29 13:04:32;;;;;;;2.85;1.60;;;;;;;14.44;100.00;100561.13;5054854;28;20413;-54
2021/09/29 13:06:59;;;;;;;3.25;1.65;;;;;;;15.24;100.00;100587.25;5056660;28;20039;-52
2021/09/29 13:09:26;;;;;;;7.53;1.63;;;;;;;16.06;92.55;100581.00;5057106;28;20061;-53
2021/09/29 13:11:52;;;;;;;3.35;1.42;;;;;;;16.59;87.61;100563.16;5056016;28;20048;-52
2021/09/29 13:14:19;;;;;;;5.15;1.30;;;;;;;16.09;87.46;100556.78;5056773;28;20041;-53
2021/09/29 13:16:45;;;;;;;3.92;2.10;;;;;;;16.39;89.53;100581.41;5064963;28;20501;-52
2021/09/29 13:19:17;;;;;;;1.63;1.30;;;;;;;17.10;85.77;100582.75;5061812;28;20048;-51
2021/09/29 13:22:05;;;;;;;5.10;1.55;;;;;;;17.44;80.47;100590.09;5058228;28;20509;-54
2021/09/29 13:24:56;;;;;;;4.43;1.30;;;;;;;17.30;81.79;100600.09;5053485;28;20512;-53
2021/09/29 13:38:30;;;;;;;2.92;1.23;;;;;;;18.37;72.15;100633.25;5061291;28;20470;-55
2021/09/29 13:40:57;;;;;;;1.10;0.75;;;;;;;17.59;75.15;100622.94;5059821;28;20343;-54
2021/09/29 13:43:24;;;;;;;4.35;1.20;;;;;;;17.43;76.03;100635.72;5061004;28;20159;-53
2021/09/29 13:45:50;;;;;;;3.50;1.60;;;;;;;17.18;77.29;100632.09;5056758;28;20367;-53
2021/09/29 13:48:19;;;;;;;3.85;1.92;;;;;;;16.72;81.97;100644.28;5055350;28;20044;-53
2021/09/29 13:50:47;;;;;;;2.85;1.85;;;;;;;16.26;84.77;100639.31;5057639;28;20067;-53
2021/09/29 13:53:14;;;;;;;4.32;2.22;;;;;;;16.30;84.54;100651.53;5061033;28;20053;-53
2021/09/29 13:55:43;;;;;;;5.30;1.10;;;;;;;16.20;83.72;100637.09;5056555;28;20529;-55
2021/09/29 13:58:37;;;;;;;3.58;0.82;;;;;;;16.14;77.08;100642.81;5060410;28;20051;-53
2021/09/29 14:15:12;;;;;;;2.08;0.85;;;;;;;15.61;83.37;100659.63;5052736;28;20045;-54